Terminal Aerodrome Forecast
Issued by NWS Cleveland, OH

Home | Current Version | Previous Version | Text Only | Print | Product List | Glossary On
Versions: 1 2 3 4 5 6 7 8 9 10 11 12 13 14 15 16 17
000
FTUS41 KCLE 211100 AAA
TAFTOL
TAF AMD
KTOL 211153Z 2112/2212 25015G25KT P6SM SCT015
     FM211330 25015G25KT P6SM BKN015
     FM211500 28012G22KT P6SM BKN025
     FM211900 30015G22KT P6SM VCTS BKN035CB
      TEMPO 2119/2123 5SM -SHRA OVC035
     FM220000 33010KT P6SM BKN030=

USA.gov is the U.S. government's official web portal to all federal, state and local government web resources and services.